createdAt,value
2022-11-16T00:02:06.992Z,235.50
2022-11-16T00:04:33.629Z,237.57
2022-11-16T00:07:02.853Z,237.13
2022-11-16T00:09:31.932Z,232.00
2022-11-16T00:12:05.569Z,230.73
2022-11-16T00:14:35.137Z,232.52
2022-11-16T00:17:02.407Z,230.25
2022-11-16T00:19:29.155Z,243.43
2022-11-16T00:21:55.941Z,243.38
2022-11-16T00:24:23.681Z,246.70
2022-11-16T00:26:50.927Z,239.77
2022-11-16T00:29:20.681Z,255.15
2022-11-16T00:31:48.230Z,248.43
2022-11-16T00:34:14.960Z,248.40
2022-11-16T00:36:41.706Z,245.88
2022-11-16T00:39:11.755Z,250.18
2022-11-16T00:41:38.273Z,263.30
2022-11-16T00:44:05.021Z,252.18
2022-11-16T00:46:31.551Z,249.48
2022-11-16T00:48:58.053Z,248.60
2022-11-16T00:51:24.522Z,247.80
2022-11-16T00:53:51.025Z,254.18
2022-11-16T00:56:17.534Z,244.35
2022-11-16T00:58:44.064Z,249.73
2022-11-16T01:01:11.717Z,257.83
2022-11-16T01:03:38.980Z,245.25
2022-11-16T01:06:08.040Z,255.52
2022-11-16T01:08:36.717Z,254.68
2022-11-16T01:11:23.117Z,257.70
2022-11-16T01:13:49.759Z,255.43
2022-11-16T01:16:17.063Z,265.02
2022-11-16T01:18:47.297Z,257.63
2022-11-16T01:21:13.857Z,253.70
2022-11-16T01:23:40.384Z,253.63
2022-11-16T01:26:07.097Z,249.85
2022-11-16T01:28:33.890Z,242.13
2022-11-16T01:31:00.829Z,248.60
2022-11-16T01:33:27.348Z,265.02
2022-11-16T01:35:53.854Z,262.40
2022-11-16T01:38:20.411Z,264.40
2022-11-16T01:40:46.949Z,266.45
2022-11-16T01:43:24.277Z,271.13
2022-11-16T01:45:51.008Z,260.08
2022-11-16T01:48:22.272Z,267.05
2022-11-16T01:50:49.973Z,263.85
2022-11-16T01:53:16.795Z,258.35
2022-11-16T01:55:45.614Z,258.42
2022-11-16T01:58:20.166Z,259.80
2022-11-16T02:00:46.820Z,251.77
2022-11-16T02:03:13.428Z,265.38
2022-11-16T02:06:03.521Z,253.75
2022-11-16T02:09:07.163Z,266.08
2022-11-16T02:11:47.826Z,264.67
2022-11-16T02:14:32.289Z,285.48
2022-11-16T02:17:20.493Z,285.17
2022-11-16T02:20:32.005Z,276.38
2022-11-16T02:23:16.526Z,274.63
2022-11-16T02:25:55.232Z,277.10
2022-11-16T02:28:27.681Z,282.35
2022-11-16T02:30:58.854Z,277.83
2022-11-16T02:33:30.480Z,289.23
2022-11-16T02:36:01.007Z,276.83
2022-11-16T02:38:32.354Z,287.25
2022-11-16T02:41:08.093Z,286.80
2022-11-16T02:43:40.422Z,284.98
2022-11-16T02:46:12.981Z,280.95
2022-11-16T02:48:46.186Z,290.77
2022-11-16T02:51:14.102Z,292.65
2022-11-16T02:53:52.470Z,293.02
2022-11-16T02:56:19.653Z,294.92
2022-11-16T02:58:47.434Z,281.20
2022-11-16T03:01:22.831Z,283.77
2022-11-16T03:03:54.987Z,284.67
2022-11-16T03:06:34.597Z,290.52
2022-11-16T03:09:07.229Z,288.85
2022-11-16T03:11:55.141Z,293.13
2022-11-16T03:14:26.243Z,300.73
2022-11-16T03:17:01.469Z,294.95
2022-11-16T03:19:47.870Z,305.60
2022-11-16T03:22:17.187Z,305.63
2022-11-16T03:24:44.244Z,298.98
2022-11-16T03:27:21.981Z,299.98
2022-11-16T03:30:08.546Z,298.92
2022-11-16T03:32:51.290Z,298.80
2022-11-16T03:35:30.591Z,290.50
2022-11-16T03:37:59.855Z,316.67
2022-11-16T03:40:30.391Z,297.13
2022-11-16T03:42:59.543Z,315.27
2022-11-16T03:45:26.713Z,296.38
2022-11-16T03:47:53.219Z,296.48
2022-11-16T03:50:19.764Z,296.52
2022-11-16T03:52:46.290Z,295.85
2022-11-16T03:55:12.877Z,311.63
2022-11-16T03:57:39.508Z,306.83
2022-11-16T04:00:07.637Z,309.25
2022-11-16T04:02:34.155Z,300.88
2022-11-16T04:05:19.628Z,319.85
2022-11-16T04:08:06.771Z,311.38
2022-11-16T04:10:51.633Z,317.67
2022-11-16T04:13:43.605Z,301.27
2022-11-16T04:16:29.465Z,314.77
2022-11-16T04:19:14.757Z,314.67
2022-11-16T04:22:05.077Z,307.35
2022-11-16T04:24:37.365Z,309.60
2022-11-16T04:27:26.505Z,316.13
2022-11-16T04:29:54.756Z,320.30
2022-11-16T04:32:40.214Z,324.83
2022-11-16T04:35:25.561Z,317.38
2022-11-16T04:37:53.366Z,318.88
2022-11-16T04:40:24.665Z,333.35
2022-11-16T04:42:56.073Z,325.45
2022-11-16T04:45:41.946Z,321.85
2022-11-16T04:48:09.725Z,311.05
2022-11-16T04:50:36.849Z,328.52
2022-11-16T04:53:04.310Z,338.33
2022-11-16T04:55:30.959Z,334.33
2022-11-16T04:57:57.469Z,337.48
2022-11-16T05:00:24.317Z,326.27
2022-11-16T05:02:50.806Z,327.48
2022-11-16T05:05:18.000Z,326.95
2022-11-16T05:07:44.893Z,326.17
2022-11-16T05:10:13.225Z,335.85
2022-11-16T05:12:40.158Z,333.38
2022-11-16T05:15:08.125Z,347.95
2022-11-16T05:17:34.925Z,343.88
2022-11-16T05:20:20.303Z,351.88
2022-11-16T05:22:56.368Z,320.25
2022-11-16T05:25:22.978Z,337.80
2022-11-16T05:27:49.568Z,329.58
2022-11-16T05:30:16.390Z,323.25
2022-11-16T05:32:42.888Z,327.02
2022-11-16T05:35:09.485Z,331.65
2022-11-16T05:37:36.009Z,336.23
2022-11-16T05:40:02.552Z,338.33
2022-11-16T05:42:29.048Z,331.63
2022-11-16T05:44:55.606Z,338.75
2022-11-16T05:47:22.221Z,345.25
2022-11-16T05:49:48.787Z,347.90
2022-11-16T05:52:15.278Z,340.08
2022-11-16T05:54:41.794Z,347.80
2022-11-16T05:57:08.292Z,331.15
2022-11-16T05:59:34.947Z,334.20
2022-11-16T06:02:01.560Z,337.83
2022-11-16T06:04:28.109Z,332.17
2022-11-16T06:06:54.608Z,327.83
2022-11-16T06:09:21.205Z,335.92
2022-11-16T06:11:47.694Z,338.33
2022-11-16T06:14:14.556Z,339.75
2022-11-16T06:16:41.027Z,350.38
2022-11-16T06:19:07.509Z,343.02
2022-11-16T06:21:34.164Z,344.75
2022-11-16T06:24:02.635Z,339.92
2022-11-16T06:26:29.216Z,333.02
2022-11-16T06:28:55.702Z,337.30
2022-11-16T06:31:22.476Z,351.42
2022-11-16T06:33:48.979Z,351.17
2022-11-16T06:36:15.493Z,336.95
2022-11-16T06:38:41.967Z,339.75
2022-11-16T06:41:08.466Z,334.08
2022-11-16T06:43:35.015Z,333.35
2022-11-16T06:46:01.565Z,321.23
2022-11-16T06:48:28.101Z,331.55
2022-11-16T06:50:54.685Z,336.73
2022-11-16T06:53:26.064Z,331.00
2022-11-16T06:55:55.648Z,334.40
2022-11-16T06:58:42.951Z,333.45
2022-11-16T07:01:11.476Z,328.83
2022-11-16T07:03:38.739Z,339.92
2022-11-16T07:06:10.312Z,325.30
2022-11-16T07:08:37.108Z,338.08
2022-11-16T07:11:08.695Z,341.30
2022-11-16T07:13:37.148Z,341.67
2022-11-16T07:16:08.466Z,358.10
2022-11-16T07:18:40.340Z,360.33
2022-11-16T07:21:12.313Z,361.63
2022-11-16T07:23:39.189Z,367.73
2022-11-16T07:26:07.807Z,382.10
2022-11-16T07:28:34.681Z,382.13
2022-11-16T07:31:06.993Z,396.77
2022-11-16T07:33:34.009Z,396.80
2022-11-16T07:36:02.493Z,393.52
2022-11-16T07:38:29.370Z,375.73
2022-11-16T07:41:03.129Z,383.17
2022-11-16T07:43:31.758Z,404.20
2022-11-16T07:48:58.485Z,393.40
2022-11-16T07:51:25.016Z,393.13
2022-11-16T07:53:55.945Z,398.75
2022-11-16T07:56:22.907Z,398.52
2022-11-16T07:58:49.777Z,409.60
2022-11-16T08:01:18.384Z,408.17
2022-11-16T08:03:46.314Z,400.77
2022-11-16T08:06:16.854Z,418.27
2022-11-16T08:08:43.685Z,421.67
2022-11-16T08:11:11.619Z,428.40
2022-11-16T08:13:40.382Z,418.90
2022-11-16T08:16:10.871Z,422.92
2022-11-16T08:18:38.005Z,425.92
2022-11-16T08:21:06.476Z,430.85
2022-11-16T08:23:33.210Z,437.80
2022-11-16T08:26:09.591Z,430.52
2022-11-16T08:28:37.211Z,426.70
2022-11-16T08:31:16.594Z,414.50
2022-11-16T08:33:43.108Z,421.15
2022-11-16T08:36:14.433Z,416.50
2022-11-16T08:38:42.170Z,434.27
2022-11-16T08:41:08.708Z,438.90
2022-11-16T08:43:35.954Z,447.77
2022-11-16T08:46:03.213Z,453.52
2022-11-16T08:48:29.833Z,443.48
2022-11-16T08:51:21.582Z,452.75
2022-11-16T08:53:49.451Z,452.83
2022-11-16T08:56:17.883Z,452.27
2022-11-16T08:58:46.931Z,458.05
2022-11-16T09:01:19.713Z,467.45
2022-11-16T09:03:46.674Z,454.67
2022-11-16T09:06:14.031Z,450.83
2022-11-16T09:08:42.561Z,458.13
2022-11-16T09:11:15.889Z,461.20
2022-11-16T09:13:43.756Z,451.33
2022-11-16T09:16:10.701Z,453.27
2022-11-16T09:18:37.988Z,443.30
2022-11-16T09:21:04.731Z,450.25
2022-11-16T09:23:31.200Z,454.00
2022-11-16T09:26:04.467Z,460.48
2022-11-16T09:28:31.987Z,455.05
2022-11-16T09:31:04.359Z,462.23
2022-11-16T09:33:32.123Z,464.10
2022-11-16T09:36:07.902Z,479.92
2022-11-16T09:42:04.749Z,471.88
2022-11-16T09:45:08.883Z,476.17
2022-11-16T09:48:02.869Z,468.23
2022-11-16T09:50:49.753Z,468.20
2022-11-16T09:53:34.522Z,483.58
2022-11-16T09:58:42.928Z,462.40
2022-11-16T10:01:32.844Z,491.77
2022-11-16T10:04:07.457Z,489.77
2022-11-16T10:09:24.235Z,490.00
2022-11-16T10:12:09.500Z,502.08
2022-11-16T10:15:09.352Z,501.58
2022-11-16T10:17:57.744Z,493.15
2022-11-16T10:20:45.686Z,504.52
2022-11-16T10:23:25.592Z,499.30
2022-11-16T10:26:11.357Z,504.25
2022-11-16T10:29:10.312Z,501.08
2022-11-16T10:31:55.513Z,483.77
2022-11-16T10:34:40.062Z,498.90
2022-11-16T10:37:08.411Z,498.35
2022-11-16T10:39:36.646Z,501.35
2022-11-16T10:42:11.795Z,504.27
2022-11-16T10:44:48.442Z,495.38
2022-11-16T10:47:54.802Z,513.22
2022-11-16T10:50:37.455Z,515.05
2022-11-16T10:53:04.045Z,511.45
2022-11-16T10:55:31.803Z,513.53
2022-11-16T10:58:00.023Z,514.55
2022-11-16T11:00:40.914Z,528.10
2022-11-16T11:03:07.578Z,521.78
2022-11-16T11:05:36.225Z,527.75
2022-11-16T11:08:10.498Z,506.90
2022-11-16T11:10:39.717Z,499.30
2022-11-16T11:13:12.103Z,499.50
2022-11-16T11:15:43.204Z,492.58
2022-11-16T11:18:10.317Z,489.70
2022-11-16T11:20:44.522Z,494.58
2022-11-16T11:23:23.616Z,498.70
2022-11-16T11:25:54.096Z,492.90
2022-11-16T11:28:28.572Z,469.48
2022-11-16T11:31:06.085Z,475.83
2022-11-16T11:33:49.004Z,477.50
2022-11-16T11:36:25.039Z,469.90
2022-11-16T11:38:56.049Z,477.80
2022-11-16T11:41:23.232Z,477.92
2022-11-16T11:44:04.453Z,475.77
2022-11-16T11:47:06.706Z,475.23
2022-11-16T11:49:34.937Z,464.75
2022-11-16T11:52:17.194Z,463.63
2022-11-16T11:54:48.602Z,466.90
2022-11-16T11:57:22.097Z,464.15
2022-11-16T11:59:52.347Z,475.73
2022-11-16T12:02:25.103Z,476.92
2022-11-16T12:05:19.154Z,476.10
2022-11-16T12:07:56.067Z,473.50
2022-11-16T12:10:47.313Z,481.77
2022-11-16T12:13:34.381Z,491.70
2022-11-16T12:16:38.422Z,496.17
2022-11-16T12:19:17.280Z,492.38
2022-11-16T12:22:08.073Z,491.45
2022-11-16T12:25:00.384Z,474.15
2022-11-16T12:27:29.909Z,486.30
2022-11-16T12:30:13.354Z,494.77
2022-11-16T12:33:08.064Z,482.58
2022-11-16T12:35:43.611Z,476.80
2022-11-16T12:38:28.653Z,486.00
2022-11-16T12:44:20.778Z,481.20
2022-11-16T12:47:05.913Z,497.30
2022-11-16T12:50:05.889Z,503.10
2022-11-16T12:52:55.075Z,505.55
2022-11-16T12:56:32.366Z,511.95
2022-11-16T12:59:13.781Z,497.35
2022-11-16T13:02:03.274Z,507.95
2022-11-16T13:04:41.431Z,494.00
2022-11-16T13:07:24.594Z,499.08
2022-11-16T13:10:03.193Z,504.10
2022-11-16T13:12:30.857Z,495.38
2022-11-16T13:15:00.270Z,497.75
2022-11-16T13:17:34.006Z,498.90
2022-11-16T13:20:16.984Z,478.67
2022-11-16T13:22:53.356Z,487.50
2022-11-16T13:25:40.077Z,502.20
2022-11-16T13:28:17.345Z,482.48
2022-11-16T13:31:00.694Z,498.40
2022-11-16T13:33:50.238Z,495.70
2022-11-16T13:36:32.724Z,495.23
2022-11-16T13:38:59.228Z,497.45
2022-11-16T13:41:36.743Z,499.23
2022-11-16T13:44:06.193Z,507.17
2022-11-16T13:46:55.955Z,509.90
2022-11-16T13:49:33.646Z,497.00
2022-11-16T13:52:22.150Z,513.58
2022-11-16T13:54:55.460Z,513.17
2022-11-16T13:57:52.609Z,520.35
2022-11-16T14:00:26.140Z,512.95
2022-11-16T14:03:15.599Z,514.90
2022-11-16T14:05:44.639Z,505.73
2022-11-16T14:08:20.079Z,503.25
2022-11-16T14:10:52.224Z,494.08
2022-11-16T14:13:39.561Z,494.65
2022-11-16T14:16:15.162Z,489.63
2022-11-16T14:18:42.851Z,499.58
2022-11-16T14:21:33.921Z,507.63
2022-11-16T14:24:11.693Z,490.15
2022-11-16T14:27:01.251Z,488.60
2022-11-16T14:29:48.804Z,493.70
2022-11-16T14:32:28.807Z,486.45
2022-11-16T14:34:58.827Z,486.73
2022-11-16T14:37:25.246Z,490.60
2022-11-16T14:39:57.771Z,485.25
2022-11-16T14:42:37.978Z,488.02
2022-11-16T14:45:17.945Z,491.02
2022-11-16T14:47:48.107Z,490.05
2022-11-16T14:50:22.548Z,486.30
2022-11-16T14:52:52.950Z,491.90
2022-11-16T14:55:24.402Z,481.45
2022-11-16T14:58:20.654Z,473.55
2022-11-16T15:01:02.767Z,463.33
2022-11-16T15:03:37.156Z,477.85
2022-11-16T15:08:37.358Z,443.98
2022-11-16T15:11:07.883Z,458.40
2022-11-16T15:13:35.932Z,467.13
2022-11-16T15:16:17.574Z,478.05
2022-11-16T15:19:01.161Z,463.42
2022-11-16T15:21:28.914Z,466.20
2022-11-16T15:26:43.357Z,455.48
2022-11-16T15:29:16.758Z,459.63
2022-11-16T15:31:44.238Z,461.73
2022-11-16T15:34:17.522Z,468.75
2022-11-16T15:36:44.277Z,464.42
2022-11-16T15:39:20.565Z,470.88
2022-11-16T15:41:47.572Z,465.08
2022-11-16T15:44:17.817Z,460.60
2022-11-16T15:46:48.184Z,444.95
2022-11-16T15:49:29.240Z,457.65
2022-11-16T15:51:59.700Z,460.55
2022-11-16T15:54:51.702Z,453.98
2022-11-16T15:57:19.849Z,446.60
2022-11-16T15:59:54.715Z,455.70
2022-11-16T16:02:25.055Z,450.02
2022-11-16T16:04:51.811Z,460.88
2022-11-16T16:07:49.294Z,463.75
2022-11-16T16:10:18.828Z,445.23
2022-11-16T16:12:54.282Z,454.95
2022-11-16T16:15:40.082Z,449.65
2022-11-16T16:18:36.710Z,450.60
2022-11-16T16:21:03.357Z,440.52
2022-11-16T16:23:29.853Z,457.05
2022-11-16T16:25:56.332Z,462.40
2022-11-16T16:28:22.834Z,458.98
2022-11-16T16:30:51.063Z,466.67
2022-11-16T16:33:19.872Z,468.48
2022-11-16T16:35:49.709Z,472.20
2022-11-16T16:38:16.368Z,464.30
2022-11-16T16:40:42.845Z,469.13
2022-11-16T16:43:09.343Z,461.42
2022-11-16T16:45:38.875Z,475.38
2022-11-16T16:48:06.274Z,461.27
2022-11-16T16:50:32.784Z,458.60
2022-11-16T16:52:59.281Z,461.08
2022-11-16T16:55:26.047Z,458.48
2022-11-16T16:57:56.464Z,460.38
2022-11-16T17:00:23.636Z,452.20
2022-11-16T17:02:50.656Z,447.17
2022-11-16T17:05:17.182Z,453.17
2022-11-16T17:07:43.673Z,438.23
2022-11-16T17:10:10.198Z,450.48
2022-11-16T17:12:36.764Z,432.05
2022-11-16T17:15:03.581Z,449.00
2022-11-16T17:17:31.435Z,460.48
2022-11-16T17:19:58.010Z,452.13
2022-11-16T17:22:24.522Z,459.45
2022-11-16T17:24:51.332Z,454.23
2022-11-16T17:27:17.813Z,452.55
2022-11-16T17:29:44.377Z,445.80
2022-11-16T17:32:10.878Z,451.83
2022-11-16T17:34:39.952Z,458.20
2022-11-16T17:37:06.921Z,438.95
2022-11-16T17:39:33.430Z,441.67
2022-11-16T17:41:59.941Z,448.35
2022-11-16T17:44:26.718Z,455.10
2022-11-16T17:46:53.258Z,455.98
2022-11-16T17:49:19.754Z,438.92
2022-11-16T17:51:46.327Z,448.35
2022-11-16T17:54:12.842Z,449.48
2022-11-16T17:56:39.358Z,443.77
2022-11-16T17:59:06.178Z,448.15
2022-11-16T18:01:33.199Z,450.85
2022-11-16T18:04:00.798Z,453.30
2022-11-16T18:06:27.317Z,455.00
2022-11-16T18:08:54.246Z,454.65
2022-11-16T18:11:26.152Z,443.50
2022-11-16T18:13:56.015Z,439.13
2022-11-16T18:16:24.948Z,443.65
2022-11-16T18:19:05.846Z,441.88
2022-11-16T18:21:37.931Z,436.73
2022-11-16T18:24:04.558Z,450.52
2022-11-16T18:26:31.048Z,434.77
2022-11-16T18:28:57.574Z,449.15
2022-11-16T18:31:24.960Z,426.45
2022-11-16T18:33:52.136Z,436.25
2022-11-16T18:36:20.317Z,438.92
2022-11-16T18:38:47.002Z,424.63
2022-11-16T18:41:13.442Z,436.52
2022-11-16T18:43:50.257Z,437.13
2022-11-16T18:46:21.773Z,426.40
2022-11-16T18:48:48.358Z,427.85
2022-11-16T18:51:16.840Z,433.30
2022-11-16T18:53:43.871Z,430.50
2022-11-16T18:56:11.882Z,431.92
2022-11-16T18:58:54.606Z,416.75
2022-11-16T19:01:24.423Z,431.33
2022-11-16T19:03:52.223Z,426.23
2022-11-16T19:06:19.598Z,433.80
2022-11-16T19:08:53.646Z,426.42
2022-11-16T19:11:23.326Z,426.75
2022-11-16T19:13:57.499Z,435.85
2022-11-16T19:16:25.089Z,436.70
2022-11-16T19:18:52.145Z,439.70
2022-11-16T19:21:19.065Z,433.50
2022-11-16T19:23:47.789Z,442.65
2022-11-16T19:26:15.979Z,439.33
2022-11-16T19:28:44.819Z,430.70
2022-11-16T19:31:17.262Z,436.85
2022-11-16T19:33:44.584Z,425.83
2022-11-16T19:36:18.904Z,429.95
2022-11-16T19:38:46.949Z,426.10
2022-11-16T19:41:15.896Z,423.13
2022-11-16T19:43:42.654Z,421.23
2022-11-16T19:46:16.611Z,425.70
2022-11-16T19:48:44.760Z,427.25
2022-11-16T19:51:16.568Z,419.30
2022-11-16T19:53:43.250Z,436.92
2022-11-16T19:56:14.949Z,418.75
2022-11-16T19:58:42.285Z,437.83
2022-11-16T20:01:17.017Z,419.73
2022-11-16T20:03:44.423Z,426.30
2022-11-16T20:06:22.140Z,413.58
2022-11-16T20:08:54.029Z,403.20
2022-11-16T20:11:25.453Z,419.88
2022-11-16T20:13:53.714Z,405.17
2022-11-16T20:16:22.890Z,403.73
2022-11-16T20:18:50.338Z,407.73
2022-11-16T20:21:22.137Z,424.92
2022-11-16T20:23:49.589Z,405.65
2022-11-16T20:26:16.099Z,411.17
2022-11-16T20:28:43.481Z,410.52
2022-11-16T20:31:15.239Z,411.92
2022-11-16T20:33:43.073Z,422.42
2022-11-16T20:36:11.403Z,416.60
2022-11-16T20:38:39.418Z,400.88
2022-11-16T20:41:14.842Z,404.73
2022-11-16T20:43:42.690Z,400.38
2022-11-16T20:46:13.974Z,400.38
2022-11-16T20:48:42.558Z,408.73
2022-11-16T20:51:12.149Z,427.52
2022-11-16T20:53:38.987Z,430.40
2022-11-16T20:56:07.560Z,412.42
2022-11-16T20:58:35.088Z,418.45
2022-11-16T21:01:05.117Z,423.33
2022-11-16T21:03:32.255Z,424.15
2022-11-16T21:05:58.931Z,421.55
2022-11-16T21:08:26.637Z,395.23
2022-11-16T21:10:53.804Z,398.90
2022-11-16T21:13:40.147Z,409.00
2022-11-16T21:16:10.851Z,408.17
2022-11-16T21:18:38.297Z,405.10
2022-11-16T21:21:06.276Z,418.10
2022-11-16T21:23:34.974Z,402.20
2022-11-16T21:26:03.586Z,405.23
2022-11-16T21:28:30.433Z,412.98
2022-11-16T21:31:05.734Z,416.98
2022-11-16T21:33:32.805Z,419.98
2022-11-16T21:36:14.222Z,418.63
2022-11-16T21:38:41.140Z,409.38
2022-11-16T21:41:09.638Z,406.33
2022-11-16T21:43:37.212Z,400.85
2022-11-16T21:46:10.038Z,396.52
2022-11-16T21:48:37.321Z,392.15
2022-11-16T21:51:12.553Z,382.92
2022-11-16T21:53:39.559Z,376.35
2022-11-16T21:56:12.506Z,387.67
2022-11-16T21:58:40.149Z,374.25
2022-11-16T22:01:08.958Z,381.75
2022-11-16T22:03:35.724Z,386.20
2022-11-16T22:06:23.301Z,362.05
2022-11-16T22:08:50.374Z,366.45
2022-11-16T22:11:17.604Z,387.27
2022-11-16T22:13:44.372Z,396.00
2022-11-16T22:16:15.470Z,399.05
2022-11-16T22:18:42.489Z,384.40
2022-11-16T22:21:09.777Z,406.58
2022-11-16T22:23:37.656Z,400.27
2022-11-16T22:26:07.498Z,367.40
2022-11-16T22:28:35.392Z,362.65
2022-11-16T22:31:15.513Z,353.63
2022-11-16T22:33:42.508Z,361.63
2022-11-16T22:36:10.351Z,361.17
2022-11-16T22:38:37.346Z,367.73
2022-11-16T22:41:04.237Z,372.80
2022-11-16T22:43:31.293Z,366.90
2022-11-16T22:46:04.286Z,345.20
2022-11-16T22:48:41.120Z,357.35
2022-11-16T22:51:20.657Z,364.67
2022-11-16T22:53:47.305Z,360.15
2022-11-16T22:56:14.132Z,347.77
2022-11-16T22:58:40.649Z,350.90
2022-11-16T23:01:09.204Z,343.58
2022-11-16T23:03:36.779Z,340.02
2022-11-16T23:06:04.563Z,303.35
2022-11-16T23:08:32.134Z,312.23
2022-11-16T23:11:22.906Z,305.23
2022-11-16T23:14:08.687Z,307.88
2022-11-16T23:16:35.904Z,295.50
2022-11-16T23:19:02.454Z,329.88
2022-11-16T23:21:47.804Z,339.98
2022-11-16T23:24:34.097Z,320.38
2022-11-16T23:27:22.637Z,294.80
2022-11-16T23:29:49.552Z,294.30
2022-11-16T23:32:16.132Z,298.63
2022-11-16T23:34:42.615Z,307.88
2022-11-16T23:37:09.141Z,314.02
2022-11-16T23:39:35.652Z,309.10
2022-11-16T23:42:20.932Z,303.73
2022-11-16T23:44:47.490Z,304.15
2022-11-16T23:47:14.074Z,334.20
2022-11-16T23:49:40.549Z,326.85
2022-11-16T23:52:07.597Z,336.38
2022-11-16T23:54:34.147Z,329.98
2022-11-16T23:57:00.650Z,329.48
2022-11-16T23:59:27.310Z,329.35
